sensor_id;sensor_type;location;lat;lon;timestamp;temperature;humidity
56234;DHT22;42141;53.240;6.580;2023-04-24T00:00:16;11.30;99.90
56234;DHT22;42141;53.240;6.580;2023-04-24T00:02:43;11.30;99.90
56234;DHT22;42141;53.240;6.580;2023-04-24T00:05:14;11.30;99.90
56234;DHT22;42141;53.240;6.580;2023-04-24T00:07:40;11.30;99.90
56234;DHT22;42141;53.240;6.580;2023-04-24T00:10:07;11.30;99.90
56234;DHT22;42141;53.240;6.580;2023-04-24T00:12:33;11.30;99.90
56234;DHT22;42141;53.240;6.580;2023-04-24T00:14:59;11.30;99.90
56234;DHT22;42141;53.240;6.580;2023-04-24T00:17:25;11.30;99.90
56234;DHT22;42141;53.240;6.580;2023-04-24T00:19:50;11.20;99.90
56234;DHT22;42141;53.240;6.580;2023-04-24T00:22:17;11.20;99.90
56234;DHT22;42141;53.240;6.580;2023-04-24T00:24:43;11.40;99.90
56234;DHT22;42141;53.240;6.580;2023-04-24T00:27:09;11.20;99.90
56234;DHT22;42141;53.240;6.580;2023-04-24T00:29:34;11.20;99.90
56234;DHT22;42141;53.240;6.580;2023-04-24T00:32:00;11.20;99.90
56234;DHT22;42141;53.240;6.580;2023-04-24T00:34:29;11.10;99.90
56234;DHT22;42141;53.240;6.580;2023-04-24T00:36:54;11.20;99.90
56234;DHT22;42141;53.240;6.580;2023-04-24T00:39:21;11.20;99.90
56234;DHT22;42141;53.240;6.580;2023-04-24T00:41:47;11.10;99.90
56234;DHT22;42141;53.240;6.580;2023-04-24T00:44:14;11.10;99.90
56234;DHT22;42141;53.240;6.580;2023-04-24T00:46:40;11.10;99.90
56234;DHT22;42141;53.240;6.580;2023-04-24T00:49:06;11.00;99.90
56234;DHT22;42141;53.240;6.580;2023-04-24T00:51:32;11.00;99.90
56234;DHT22;42141;53.240;6.580;2023-04-24T00:54:01;11.00;99.90
56234;DHT22;42141;53.240;6.580;2023-04-24T00:56:28;11.20;99.90
56234;DHT22;42141;53.240;6.580;2023-04-24T00:58:53;10.90;99.90
56234;DHT22;42141;53.240;6.580;2023-04-24T01:01:21;10.80;99.90
56234;DHT22;42141;53.240;6.580;2023-04-24T01:03:48;10.80;99.90
56234;DHT22;42141;53.240;6.580;2023-04-24T01:06:15;10.80;99.90
56234;DHT22;42141;53.240;6.580;2023-04-24T01:08:41;11.20;99.90
56234;DHT22;42141;53.240;6.580;2023-04-24T01:11:07;10.70;99.90
56234;DHT22;42141;53.240;6.580;2023-04-24T01:13:33;10.70;99.90
56234;DHT22;42141;53.240;6.580;2023-04-24T01:16:00;10.60;99.90
56234;DHT22;42141;53.240;6.580;2023-04-24T01:18:26;10.70;99.90
56234;DHT22;42141;53.240;6.580;2023-04-24T01:21:03;10.50;99.90
56234;DHT22;42141;53.240;6.580;2023-04-24T01:23:29;10.60;99.90
56234;DHT22;42141;53.240;6.580;2023-04-24T01:25:55;10.60;99.90
56234;DHT22;42141;53.240;6.580;2023-04-24T01:28:21;10.80;99.90
56234;DHT22;42141;53.240;6.580;2023-04-24T01:30:47;10.60;99.90
56234;DHT22;42141;53.240;6.580;2023-04-24T01:33:13;10.50;99.90
56234;DHT22;42141;53.240;6.580;2023-04-24T01:35:39;10.50;99.90
56234;DHT22;42141;53.240;6.580;2023-04-24T01:38:05;10.50;99.90
56234;DHT22;42141;53.240;6.580;2023-04-24T01:40:32;10.50;99.90
56234;DHT22;42141;53.240;6.580;2023-04-24T01:42:58;10.50;99.90
56234;DHT22;42141;53.240;6.580;2023-04-24T01:45:24;10.50;99.90
56234;DHT22;42141;53.240;6.580;2023-04-24T01:47:50;10.50;99.90
56234;DHT22;42141;53.240;6.580;2023-04-24T01:50:16;10.50;99.90
56234;DHT22;42141;53.240;6.580;2023-04-24T01:52:42;10.50;99.90
56234;DHT22;42141;53.240;6.580;2023-04-24T01:55:08;10.40;99.90
56234;DHT22;42141;53.240;6.580;2023-04-24T01:57:34;10.40;99.90
56234;DHT22;42141;53.240;6.580;2023-04-24T02:00:04;10.40;99.90
56234;DHT22;42141;53.240;6.580;2023-04-24T02:02:30;10.40;99.90
56234;DHT22;42141;53.240;6.580;2023-04-24T02:04:56;10.30;99.90
56234;DHT22;42141;53.240;6.580;2023-04-24T02:07:22;10.10;99.90
56234;DHT22;42141;53.240;6.580;2023-04-24T02:09:48;10.50;99.90
56234;DHT22;42141;53.240;6.580;2023-04-24T02:12:15;10.30;99.90
56234;DHT22;42141;53.240;6.580;2023-04-24T02:14:41;10.30;99.90
56234;DHT22;42141;53.240;6.580;2023-04-24T02:17:07;10.30;99.90
56234;DHT22;42141;53.240;6.580;2023-04-24T02:19:33;10.30;99.90
56234;DHT22;42141;53.240;6.580;2023-04-24T02:21:59;10.20;99.90
56234;DHT22;42141;53.240;6.580;2023-04-24T02:24:24;10.50;99.90
56234;DHT22;42141;53.240;6.580;2023-04-24T02:26:50;10.30;99.90
56234;DHT22;42141;53.240;6.580;2023-04-24T02:29:16;10.20;99.90
56234;DHT22;42141;53.240;6.580;2023-04-24T02:31:41;10.40;99.90
56234;DHT22;42141;53.240;6.580;2023-04-24T02:34:08;10.50;99.90
56234;DHT22;42141;53.240;6.580;2023-04-24T02:36:33;10.40;99.90
56234;DHT22;42141;53.240;6.580;2023-04-24T02:38:59;10.20;99.90
56234;DHT22;42141;53.240;6.580;2023-04-24T02:41:26;10.20;99.90
56234;DHT22;42141;53.240;6.580;2023-04-24T02:43:57;10.20;99.90
56234;DHT22;42141;53.240;6.580;2023-04-24T02:46:23;11.40;99.90
56234;DHT22;42141;53.240;6.580;2023-04-24T02:48:49;10.30;99.90
56234;DHT22;42141;53.240;6.580;2023-04-24T02:51:14;10.20;99.90
56234;DHT22;42141;53.240;6.580;2023-04-24T02:53:40;11.10;99.90
56234;DHT22;42141;53.240;6.580;2023-04-24T02:56:06;10.30;99.90
56234;DHT22;42141;53.240;6.580;2023-04-24T02:58:31;10.30;99.90
56234;DHT22;42141;53.240;6.580;2023-04-24T03:00:57;10.30;99.90
56234;DHT22;42141;53.240;6.580;2023-04-24T03:03:23;10.30;99.90
56234;DHT22;42141;53.240;6.580;2023-04-24T03:05:49;10.30;99.90
56234;DHT22;42141;53.240;6.580;2023-04-24T03:08:15;10.30;99.90
56234;DHT22;42141;53.240;6.580;2023-04-24T03:10:41;10.30;99.90
56234;DHT22;42141;53.240;6.580;2023-04-24T03:13:07;10.40;99.90
56234;DHT22;42141;53.240;6.580;2023-04-24T03:15:33;10.30;99.90
56234;DHT22;42141;53.240;6.580;2023-04-24T03:17:58;10.60;99.90
56234;DHT22;42141;53.240;6.580;2023-04-24T03:20:24;10.90;99.90
56234;DHT22;42141;53.240;6.580;2023-04-24T03:22:50;10.30;99.90
56234;DHT22;42141;53.240;6.580;2023-04-24T03:25:16;10.30;99.90
56234;DHT22;42141;53.240;6.580;2023-04-24T03:27:41;10.40;99.90
56234;DHT22;42141;53.240;6.580;2023-04-24T03:30:07;10.40;99.90
56234;DHT22;42141;53.240;6.580;2023-04-24T03:32:33;10.40;99.90
56234;DHT22;42141;53.240;6.580;2023-04-24T03:34:59;10.40;99.90
56234;DHT22;42141;53.240;6.580;2023-04-24T03:37:25;10.60;99.90
56234;DHT22;42141;53.240;6.580;2023-04-24T03:39:52;10.40;99.90
56234;DHT22;42141;53.240;6.580;2023-04-24T03:42:17;10.40;99.90
56234;DHT22;42141;53.240;6.580;2023-04-24T03:44:43;10.40;99.90
56234;DHT22;42141;53.240;6.580;2023-04-24T03:47:09;10.40;99.90
56234;DHT22;42141;53.240;6.580;2023-04-24T03:49:35;11.20;99.90
56234;DHT22;42141;53.240;6.580;2023-04-24T03:52:00;10.40;99.90
56234;DHT22;42141;53.240;6.580;2023-04-24T03:54:26;10.80;99.90
56234;DHT22;42141;53.240;6.580;2023-04-24T03:56:52;10.40;99.90
56234;DHT22;42141;53.240;6.580;2023-04-24T03:59:18;10.50;99.90
56234;DHT22;42141;53.240;6.580;2023-04-24T04:01:44;10.40;99.90
56234;DHT22;42141;53.240;6.580;2023-04-24T04:04:10;10.40;99.90
56234;DHT22;42141;53.240;6.580;2023-04-24T04:06:36;10.50;99.90
56234;DHT22;42141;53.240;6.580;2023-04-24T04:09:02;10.40;99.90
56234;DHT22;42141;53.240;6.580;2023-04-24T04:11:29;10.40;99.90
56234;DHT22;42141;53.240;6.580;2023-04-24T04:13:54;10.40;99.90
56234;DHT22;42141;53.240;6.580;2023-04-24T04:16:20;10.30;99.90
56234;DHT22;42141;53.240;6.580;2023-04-24T04:18:46;10.40;99.90
56234;DHT22;42141;53.240;6.580;2023-04-24T04:21:12;10.70;99.90
56234;DHT22;42141;53.240;6.580;2023-04-24T04:23:38;9.50;99.90
56234;DHT22;42141;53.240;6.580;2023-04-24T04:26:03;10.70;99.90
56234;DHT22;42141;53.240;6.580;2023-04-24T04:28:30;10.50;99.90
56234;DHT22;42141;53.240;6.580;2023-04-24T04:30:58;10.60;99.90
56234;DHT22;42141;53.240;6.580;2023-04-24T04:33:24;10.80;99.90
56234;DHT22;42141;53.240;6.580;2023-04-24T04:35:51;10.40;99.90
56234;DHT22;42141;53.240;6.580;2023-04-24T04:38:22;10.40;99.90
56234;DHT22;42141;53.240;6.580;2023-04-24T04:40:48;10.30;99.90
56234;DHT22;42141;53.240;6.580;2023-04-24T04:43:13;10.30;99.90
56234;DHT22;42141;53.240;6.580;2023-04-24T04:45:40;10.30;99.90
56234;DHT22;42141;53.240;6.580;2023-04-24T04:48:08;10.40;99.90
56234;DHT22;42141;53.240;6.580;2023-04-24T04:50:37;10.30;99.90
56234;DHT22;42141;53.240;6.580;2023-04-24T04:53:03;10.30;99.90
56234;DHT22;42141;53.240;6.580;2023-04-24T04:55:29;10.30;99.90
56234;DHT22;42141;53.240;6.580;2023-04-24T04:57:55;10.30;99.90
56234;DHT22;42141;53.240;6.580;2023-04-24T05:00:22;11.20;99.90
56234;DHT22;42141;53.240;6.580;2023-04-24T05:02:49;10.30;99.90
56234;DHT22;42141;53.240;6.580;2023-04-24T05:05:15;11.20;99.90
56234;DHT22;42141;53.240;6.580;2023-04-24T05:07:42;10.30;99.90
56234;DHT22;42141;53.240;6.580;2023-04-24T05:10:08;10.40;99.90
56234;DHT22;42141;53.240;6.580;2023-04-24T05:12:34;10.40;99.90
56234;DHT22;42141;53.240;6.580;2023-04-24T05:15:00;10.40;99.90
56234;DHT22;42141;53.240;6.580;2023-04-24T05:17:25;10.50;99.90
56234;DHT22;42141;53.240;6.580;2023-04-24T05:19:51;10.40;99.90
56234;DHT22;42141;53.240;6.580;2023-04-24T05:22:17;10.60;99.90
56234;DHT22;42141;53.240;6.580;2023-04-24T05:24:45;10.40;99.90
56234;DHT22;42141;53.240;6.580;2023-04-24T05:27:11;10.50;99.90
56234;DHT22;42141;53.240;6.580;2023-04-24T05:29:36;10.40;99.90
56234;DHT22;42141;53.240;6.580;2023-04-24T05:32:02;10.60;99.90
56234;DHT22;42141;53.240;6.580;2023-04-24T05:34:28;10.50;99.90
56234;DHT22;42141;53.240;6.580;2023-04-24T05:36:54;10.80;99.90
56234;DHT22;42141;53.240;6.580;2023-04-24T05:39:20;10.50;99.90
56234;DHT22;42141;53.240;6.580;2023-04-24T05:41:46;11.20;99.90
56234;DHT22;42141;53.240;6.580;2023-04-24T05:44:11;10.50;99.90
56234;DHT22;42141;53.240;6.580;2023-04-24T05:46:37;10.50;99.90
56234;DHT22;42141;53.240;6.580;2023-04-24T05:49:03;10.50;99.90
56234;DHT22;42141;53.240;6.580;2023-04-24T05:51:28;10.50;99.90
56234;DHT22;42141;53.240;6.580;2023-04-24T05:53:54;10.50;99.90
56234;DHT22;42141;53.240;6.580;2023-04-24T05:56:20;10.50;99.90
56234;DHT22;42141;53.240;6.580;2023-04-24T05:58:46;10.50;99.90
56234;DHT22;42141;53.240;6.580;2023-04-24T06:01:13;10.50;99.90
56234;DHT22;42141;53.240;6.580;2023-04-24T06:03:42;10.50;99.90
56234;DHT22;42141;53.240;6.580;2023-04-24T06:06:08;10.50;99.90
56234;DHT22;42141;53.240;6.580;2023-04-24T06:08:34;10.50;99.90
56234;DHT22;42141;53.240;6.580;2023-04-24T06:11:00;10.40;99.90
56234;DHT22;42141;53.240;6.580;2023-04-24T06:13:26;10.90;99.90
56234;DHT22;42141;53.240;6.580;2023-04-24T06:15:52;10.90;99.90
56234;DHT22;42141;53.240;6.580;2023-04-24T06:18:18;11.60;99.90
56234;DHT22;42141;53.240;6.580;2023-04-24T06:20:45;10.40;99.90
56234;DHT22;42141;53.240;6.580;2023-04-24T06:23:11;10.30;99.90
56234;DHT22;42141;53.240;6.580;2023-04-24T06:25:37;10.30;99.90
56234;DHT22;42141;53.240;6.580;2023-04-24T06:28:03;10.30;99.90
56234;DHT22;42141;53.240;6.580;2023-04-24T06:30:30;10.40;99.90
56234;DHT22;42141;53.240;6.580;2023-04-24T06:32:56;10.80;99.90
56234;DHT22;42141;53.240;6.580;2023-04-24T06:35:22;10.30;99.90
56234;DHT22;42141;53.240;6.580;2023-04-24T06:37:47;10.30;99.90
56234;DHT22;42141;53.240;6.580;2023-04-24T06:40:13;10.70;99.90
56234;DHT22;42141;53.240;6.580;2023-04-24T06:42:39;10.40;99.90
56234;DHT22;42141;53.240;6.580;2023-04-24T06:45:05;10.40;99.90
56234;DHT22;42141;53.240;6.580;2023-04-24T06:47:31;10.40;99.90
56234;DHT22;42141;53.240;6.580;2023-04-24T06:49:57;10.30;99.90
56234;DHT22;42141;53.240;6.580;2023-04-24T06:52:22;10.40;99.90
56234;DHT22;42141;53.240;6.580;2023-04-24T06:54:48;10.50;99.90
56234;DHT22;42141;53.240;6.580;2023-04-24T06:57:14;10.40;99.90
56234;DHT22;42141;53.240;6.580;2023-04-24T06:59:41;10.40;99.90
56234;DHT22;42141;53.240;6.580;2023-04-24T07:02:07;10.40;99.90
56234;DHT22;42141;53.240;6.580;2023-04-24T07:04:33;10.50;99.90
56234;DHT22;42141;53.240;6.580;2023-04-24T07:06:59;10.50;99.90
56234;DHT22;42141;53.240;6.580;2023-04-24T07:09:25;10.50;99.90
56234;DHT22;42141;53.240;6.580;2023-04-24T07:11:52;10.50;99.90
56234;DHT22;42141;53.240;6.580;2023-04-24T07:14:19;10.70;99.90
56234;DHT22;42141;53.240;6.580;2023-04-24T07:16:45;10.60;99.90
56234;DHT22;42141;53.240;6.580;2023-04-24T07:19:12;10.40;99.90
56234;DHT22;42141;53.240;6.580;2023-04-24T07:21:38;10.40;99.90
56234;DHT22;42141;53.240;6.580;2023-04-24T07:24:04;10.40;99.90
56234;DHT22;42141;53.240;6.580;2023-04-24T07:26:30;10.30;99.90
56234;DHT22;42141;53.240;6.580;2023-04-24T07:28:56;10.50;99.90
56234;DHT22;42141;53.240;6.580;2023-04-24T07:31:22;10.50;99.90
56234;DHT22;42141;53.240;6.580;2023-04-24T07:33:48;10.30;99.90
56234;DHT22;42141;53.240;6.580;2023-04-24T07:36:14;10.70;99.90
56234;DHT22;42141;53.240;6.580;2023-04-24T07:38:47;10.30;99.90
56234;DHT22;42141;53.240;6.580;2023-04-24T07:41:13;10.30;99.90
56234;DHT22;42141;53.240;6.580;2023-04-24T07:43:39;10.20;99.90
56234;DHT22;42141;53.240;6.580;2023-04-24T07:46:06;10.40;99.90
56234;DHT22;42141;53.240;6.580;2023-04-24T07:48:32;10.20;99.90
56234;DHT22;42141;53.240;6.580;2023-04-24T07:50:58;10.80;99.90
56234;DHT22;42141;53.240;6.580;2023-04-24T07:53:23;10.10;99.90
56234;DHT22;42141;53.240;6.580;2023-04-24T07:55:49;10.60;99.90
56234;DHT22;42141;53.240;6.580;2023-04-24T07:58:15;10.10;99.90
56234;DHT22;42141;53.240;6.580;2023-04-24T08:00:41;10.10;99.90
56234;DHT22;42141;53.240;6.580;2023-04-24T08:03:06;10.20;99.90
56234;DHT22;42141;53.240;6.580;2023-04-24T08:05:32;10.10;99.90
56234;DHT22;42141;53.240;6.580;2023-04-24T08:07:58;10.10;99.90
56234;DHT22;42141;53.240;6.580;2023-04-24T08:10:24;10.40;99.90
56234;DHT22;42141;53.240;6.580;2023-04-24T08:12:51;10.00;99.90
56234;DHT22;42141;53.240;6.580;2023-04-24T08:15:17;10.00;99.90
56234;DHT22;42141;53.240;6.580;2023-04-24T08:17:42;10.00;99.90
56234;DHT22;42141;53.240;6.580;2023-04-24T08:20:10;10.00;99.90
56234;DHT22;42141;53.240;6.580;2023-04-24T08:22:42;9.90;99.90
56234;DHT22;42141;53.240;6.580;2023-04-24T08:25:10;10.30;99.90
56234;DHT22;42141;53.240;6.580;2023-04-24T08:27:36;9.90;99.90
56234;DHT22;42141;53.240;6.580;2023-04-24T08:30:03;10.10;99.90
56234;DHT22;42141;53.240;6.580;2023-04-24T08:32:29;9.90;99.90
56234;DHT22;42141;53.240;6.580;2023-04-24T08:34:59;10.00;99.90
56234;DHT22;42141;53.240;6.580;2023-04-24T08:37:26;10.00;99.90
56234;DHT22;42141;53.240;6.580;2023-04-24T08:39:52;10.00;99.90
56234;DHT22;42141;53.240;6.580;2023-04-24T08:42:19;9.90;99.90
56234;DHT22;42141;53.240;6.580;2023-04-24T08:44:45;10.00;99.90
56234;DHT22;42141;53.240;6.580;2023-04-24T08:47:11;9.80;99.90
56234;DHT22;42141;53.240;6.580;2023-04-24T08:49:38;9.80;99.90
56234;DHT22;42141;53.240;6.580;2023-04-24T08:52:05;9.70;99.90
56234;DHT22;42141;53.240;6.580;2023-04-24T08:54:33;9.80;99.90
56234;DHT22;42141;53.240;6.580;2023-04-24T08:57:00;9.70;99.90
56234;DHT22;42141;53.240;6.580;2023-04-24T08:59:31;9.70;99.90
56234;DHT22;42141;53.240;6.580;2023-04-24T09:01:57;9.60;99.90
56234;DHT22;42141;53.240;6.580;2023-04-24T09:04:24;9.80;99.90
56234;DHT22;42141;53.240;6.580;2023-04-24T09:06:51;9.40;99.90
56234;DHT22;42141;53.240;6.580;2023-04-24T09:09:21;9.60;99.90
56234;DHT22;42141;53.240;6.580;2023-04-24T09:11:49;9.40;99.90
56234;DHT22;42141;53.240;6.580;2023-04-24T09:14:16;9.30;99.90
56234;DHT22;42141;53.240;6.580;2023-04-24T09:16:42;9.80;99.90
56234;DHT22;42141;53.240;6.580;2023-04-24T09:19:08;9.50;99.90
56234;DHT22;42141;53.240;6.580;2023-04-24T09:21:34;9.30;99.90
56234;DHT22;42141;53.240;6.580;2023-04-24T09:24:02;9.40;99.90
56234;DHT22;42141;53.240;6.580;2023-04-24T09:26:33;9.40;99.90
56234;DHT22;42141;53.240;6.580;2023-04-24T09:29:00;9.30;99.90
56234;DHT22;42141;53.240;6.580;2023-04-24T09:31:28;9.70;99.90
56234;DHT22;42141;53.240;6.580;2023-04-24T09:33:59;10.00;99.90
56234;DHT22;42141;53.240;6.580;2023-04-24T09:36:33;9.40;99.90
56234;DHT22;42141;53.240;6.580;2023-04-24T09:39:00;9.50;99.90
56234;DHT22;42141;53.240;6.580;2023-04-24T09:41:27;9.80;99.90
56234;DHT22;42141;53.240;6.580;2023-04-24T09:43:55;10.30;99.90
56234;DHT22;42141;53.240;6.580;2023-04-24T09:46:21;10.30;99.90
56234;DHT22;42141;53.240;6.580;2023-04-24T09:48:47;10.30;99.90
56234;DHT22;42141;53.240;6.580;2023-04-24T09:51:13;9.50;99.90
56234;DHT22;42141;53.240;6.580;2023-04-24T09:53:45;10.10;99.90
56234;DHT22;42141;53.240;6.580;2023-04-24T09:56:11;9.50;99.90
56234;DHT22;42141;53.240;6.580;2023-04-24T09:58:40;9.40;99.90
56234;DHT22;42141;53.240;6.580;2023-04-24T10:01:06;9.40;99.90
56234;DHT22;42141;53.240;6.580;2023-04-24T10:03:33;9.70;99.90
56234;DHT22;42141;53.240;6.580;2023-04-24T10:06:03;10.30;99.90
56234;DHT22;42141;53.240;6.580;2023-04-24T10:08:34;9.60;99.90
56234;DHT22;42141;53.240;6.580;2023-04-24T10:11:01;9.80;99.90
56234;DHT22;42141;53.240;6.580;2023-04-24T10:13:28;9.80;99.90
56234;DHT22;42141;53.240;6.580;2023-04-24T10:15:54;10.00;99.90
56234;DHT22;42141;53.240;6.580;2023-04-24T10:18:21;10.00;99.90
56234;DHT22;42141;53.240;6.580;2023-04-24T10:20:47;10.30;99.90
56234;DHT22;42141;53.240;6.580;2023-04-24T10:23:14;10.30;99.90
56234;DHT22;42141;53.240;6.580;2023-04-24T10:25:40;10.40;99.90
56234;DHT22;42141;53.240;6.580;2023-04-24T10:28:06;10.50;99.90
56234;DHT22;42141;53.240;6.580;2023-04-24T10:30:33;10.60;99.90
56234;DHT22;42141;53.240;6.580;2023-04-24T10:33:04;10.70;99.90
56234;DHT22;42141;53.240;6.580;2023-04-24T10:35:33;11.00;99.90
56234;DHT22;42141;53.240;6.580;2023-04-24T10:38:06;11.10;99.90
56234;DHT22;42141;53.240;6.580;2023-04-24T10:40:35;11.10;99.90
56234;DHT22;42141;53.240;6.580;2023-04-24T10:43:05;11.80;99.90
56234;DHT22;42141;53.240;6.580;2023-04-24T10:45:33;11.30;99.90
56234;DHT22;42141;53.240;6.580;2023-04-24T10:48:07;11.30;99.90
56234;DHT22;42141;53.240;6.580;2023-04-24T10:50:52;11.20;99.90
56234;DHT22;42141;53.240;6.580;2023-04-24T10:53:20;11.10;99.90
56234;DHT22;42141;53.240;6.580;2023-04-24T10:56:05;11.10;99.90
56234;DHT22;42141;53.240;6.580;2023-04-24T10:58:51;11.10;99.90
56234;DHT22;42141;53.240;6.580;2023-04-24T11:03:54;11.10;99.90
56234;DHT22;42141;53.240;6.580;2023-04-24T11:06:35;11.30;99.90
56234;DHT22;42141;53.240;6.580;2023-04-24T11:09:08;11.20;99.90
56234;DHT22;42141;53.240;6.580;2023-04-24T11:11:38;11.30;99.90
56234;DHT22;42141;53.240;6.580;2023-04-24T11:14:09;11.30;99.90
56234;DHT22;42141;53.240;6.580;2023-04-24T11:16:53;11.30;99.90
56234;DHT22;42141;53.240;6.580;2023-04-24T11:19:24;11.30;99.90
56234;DHT22;42141;53.240;6.580;2023-04-24T11:22:04;11.20;99.90
56234;DHT22;42141;53.240;6.580;2023-04-24T11:27:22;10.90;99.90
56234;DHT22;42141;53.240;6.580;2023-04-24T11:35:05;10.90;99.90
56234;DHT22;42141;53.240;6.580;2023-04-24T11:37:36;10.90;99.90
56234;DHT22;42141;53.240;6.580;2023-04-24T11:40:02;10.90;99.90
56234;DHT22;42141;53.240;6.580;2023-04-24T11:42:43;10.80;99.90
56234;DHT22;42141;53.240;6.580;2023-04-24T11:45:11;10.80;99.90
56234;DHT22;42141;53.240;6.580;2023-04-24T11:47:38;10.80;99.90
56234;DHT22;42141;53.240;6.580;2023-04-24T11:50:06;10.60;99.90
56234;DHT22;42141;53.240;6.580;2023-04-24T11:52:33;10.60;99.90
56234;DHT22;42141;53.240;6.580;2023-04-24T11:55:02;10.60;99.90
56234;DHT22;42141;53.240;6.580;2023-04-24T11:57:29;10.50;99.90
56234;DHT22;42141;53.240;6.580;2023-04-24T12:00:00;10.50;99.90
56234;DHT22;42141;53.240;6.580;2023-04-24T12:02:27;10.80;99.90
56234;DHT22;42141;53.240;6.580;2023-04-24T12:04:54;10.40;99.90
56234;DHT22;42141;53.240;6.580;2023-04-24T12:07:20;10.40;99.90
56234;DHT22;42141;53.240;6.580;2023-04-24T12:09:48;10.40;99.90
56234;DHT22;42141;53.240;6.580;2023-04-24T12:12:18;10.80;99.90
56234;DHT22;42141;53.240;6.580;2023-04-24T12:14:45;10.20;99.90
56234;DHT22;42141;53.240;6.580;2023-04-24T12:17:10;10.50;99.90
56234;DHT22;42141;53.240;6.580;2023-04-24T12:19:36;10.20;99.90
56234;DHT22;42141;53.240;6.580;2023-04-24T12:22:04;10.20;99.90
56234;DHT22;42141;53.240;6.580;2023-04-24T12:24:30;10.20;99.90
56234;DHT22;42141;53.240;6.580;2023-04-24T12:26:57;10.30;99.90
56234;DHT22;42141;53.240;6.580;2023-04-24T12:29:24;10.30;99.90
56234;DHT22;42141;53.240;6.580;2023-04-24T12:31:54;10.40;99.90
56234;DHT22;42141;53.240;6.580;2023-04-24T12:34:20;10.60;99.90
56234;DHT22;42141;53.240;6.580;2023-04-24T12:36:47;10.70;99.90
56234;DHT22;42141;53.240;6.580;2023-04-24T12:39:20;10.90;99.90
56234;DHT22;42141;53.240;6.580;2023-04-24T12:41:58;11.00;99.90
56234;DHT22;42141;53.240;6.580;2023-04-24T12:44:32;11.10;99.90
56234;DHT22;42141;53.240;6.580;2023-04-24T12:47:03;11.20;99.90
56234;DHT22;42141;53.240;6.580;2023-04-24T12:49:32;12.10;99.90
56234;DHT22;42141;53.240;6.580;2023-04-24T12:51:58;11.40;99.90
56234;DHT22;42141;53.240;6.580;2023-04-24T12:54:24;11.30;99.90
56234;DHT22;42141;53.240;6.580;2023-04-24T12:56:50;11.20;99.90
56234;DHT22;42141;53.240;6.580;2023-04-24T12:59:16;11.20;99.90
56234;DHT22;42141;53.240;6.580;2023-04-24T13:01:41;11.10;99.90
56234;DHT22;42141;53.240;6.580;2023-04-24T13:04:07;11.00;99.90
56234;DHT22;42141;53.240;6.580;2023-04-24T13:06:33;10.90;99.90
56234;DHT22;42141;53.240;6.580;2023-04-24T13:08:59;10.70;99.90
56234;DHT22;42141;53.240;6.580;2023-04-24T13:11:25;10.70;99.90
56234;DHT22;42141;53.240;6.580;2023-04-24T13:13:50;10.80;99.90
56234;DHT22;42141;53.240;6.580;2023-04-24T13:16:16;10.50;99.90
56234;DHT22;42141;53.240;6.580;2023-04-24T13:18:42;10.40;99.90
56234;DHT22;42141;53.240;6.580;2023-04-24T13:21:08;10.20;99.90
56234;DHT22;42141;53.240;6.580;2023-04-24T13:23:33;10.30;99.90
56234;DHT22;42141;53.240;6.580;2023-04-24T13:26:00;10.80;99.90
56234;DHT22;42141;53.240;6.580;2023-04-24T13:28:26;10.10;99.90
56234;DHT22;42141;53.240;6.580;2023-04-24T13:30:53;10.80;99.90
56234;DHT22;42141;53.240;6.580;2023-04-24T13:33:18;10.00;99.90
56234;DHT22;42141;53.240;6.580;2023-04-24T13:35:44;10.10;99.90
56234;DHT22;42141;53.240;6.580;2023-04-24T13:38:10;10.20;99.90
56234;DHT22;42141;53.240;6.580;2023-04-24T13:40:36;10.20;99.90
56234;DHT22;42141;53.240;6.580;2023-04-24T13:43:02;10.30;99.90
56234;DHT22;42141;53.240;6.580;2023-04-24T13:45:28;10.40;99.90
56234;DHT22;42141;53.240;6.580;2023-04-24T13:47:54;10.40;99.90
56234;DHT22;42141;53.240;6.580;2023-04-24T13:50:20;10.50;99.90
56234;DHT22;42141;53.240;6.580;2023-04-24T13:52:46;10.50;99.90
56234;DHT22;42141;53.240;6.580;2023-04-24T13:55:11;10.60;99.90
56234;DHT22;42141;53.240;6.580;2023-04-24T13:57:37;10.60;99.90
56234;DHT22;42141;53.240;6.580;2023-04-24T14:00:03;10.50;99.90
56234;DHT22;42141;53.240;6.580;2023-04-24T14:02:29;10.50;99.90
56234;DHT22;42141;53.240;6.580;2023-04-24T14:04:55;10.90;99.90
56234;DHT22;42141;53.240;6.580;2023-04-24T14:07:21;10.20;99.90
56234;DHT22;42141;53.240;6.580;2023-04-24T14:09:47;10.10;99.90
56234;DHT22;42141;53.240;6.580;2023-04-24T14:12:13;10.00;99.90
56234;DHT22;42141;53.240;6.580;2023-04-24T14:14:39;10.40;99.90
56234;DHT22;42141;53.240;6.580;2023-04-24T14:17:05;10.00;99.90
56234;DHT22;42141;53.240;6.580;2023-04-24T14:19:31;9.90;99.90
56234;DHT22;42141;53.240;6.580;2023-04-24T14:21:57;9.90;99.90
56234;DHT22;42141;53.240;6.580;2023-04-24T14:24:24;10.30;99.90
56234;DHT22;42141;53.240;6.580;2023-04-24T14:26:49;9.90;99.90
56234;DHT22;42141;53.240;6.580;2023-04-24T14:29:15;9.90;99.90
56234;DHT22;42141;53.240;6.580;2023-04-24T14:31:42;9.90;99.90
56234;DHT22;42141;53.240;6.580;2023-04-24T14:34:09;9.90;99.90
56234;DHT22;42141;53.240;6.580;2023-04-24T14:36:35;9.90;99.90
56234;DHT22;42141;53.240;6.580;2023-04-24T14:39:01;9.80;99.90
56234;DHT22;42141;53.240;6.580;2023-04-24T14:41:31;9.80;99.90
56234;DHT22;42141;53.240;6.580;2023-04-24T14:43:59;10.30;99.90
56234;DHT22;42141;53.240;6.580;2023-04-24T14:46:24;9.70;99.90
56234;DHT22;42141;53.240;6.580;2023-04-24T14:48:50;9.80;99.90
56234;DHT22;42141;53.240;6.580;2023-04-24T14:51:16;9.80;99.90
56234;DHT22;42141;53.240;6.580;2023-04-24T14:53:41;9.80;99.90
56234;DHT22;42141;53.240;6.580;2023-04-24T14:56:07;10.20;99.90
56234;DHT22;42141;53.240;6.580;2023-04-24T14:58:33;9.90;99.90
56234;DHT22;42141;53.240;6.580;2023-04-24T15:00:59;9.90;99.90
56234;DHT22;42141;53.240;6.580;2023-04-24T15:03:25;10.40;99.90
56234;DHT22;42141;53.240;6.580;2023-04-24T15:05:52;9.90;99.90
56234;DHT22;42141;53.240;6.580;2023-04-24T15:08:18;9.80;99.90
56234;DHT22;42141;53.240;6.580;2023-04-24T15:10:44;9.80;99.90
56234;DHT22;42141;53.240;6.580;2023-04-24T15:13:10;9.80;99.90
56234;DHT22;42141;53.240;6.580;2023-04-24T15:15:35;9.80;99.90
56234;DHT22;42141;53.240;6.580;2023-04-24T15:18:02;9.70;99.90
56234;DHT22;42141;53.240;6.580;2023-04-24T15:20:28;9.70;99.90
56234;DHT22;42141;53.240;6.580;2023-04-24T15:22:53;9.80;99.90
56234;DHT22;42141;53.240;6.580;2023-04-24T15:25:19;10.00;99.90
56234;DHT22;42141;53.240;6.580;2023-04-24T15:27:45;9.70;99.90
56234;DHT22;42141;53.240;6.580;2023-04-24T15:30:12;9.70;99.90
56234;DHT22;42141;53.240;6.580;2023-04-24T15:32:38;9.30;99.90
56234;DHT22;42141;53.240;6.580;2023-04-24T15:35:05;9.80;99.90
56234;DHT22;42141;53.240;6.580;2023-04-24T15:37:31;9.80;99.90
56234;DHT22;42141;53.240;6.580;2023-04-24T15:39:57;9.90;99.90